KGLY

Clinton Regional Airport

Clinton, Missouri, USA
METAR KGLY 181255Z AUTO 00000KT 10SM CLR M02/M04 A3014 RMK AO2
Observed Flight Rules
Dec-18 @ 12:55 UTC (12 minutes ago) Visual Flight Rules
Visibility Clouds
10 miles
  • Clear skies
Temperatures Readings
Current -2°C / 28°F
Dewpoint -4°C / 25°F
Humidity 86%
Altimeter 30.14" Hg
Pressure 1021 hPa
Elevation 251
METAR KGLY 181255Z AUTO 00000KT 10SM CLR M02/M04 A3014 RMK AO2
Observed Flight Rules
Dec-18 @ 12:55 UTC
(12 minutes ago)
VFR
Clouds
  • Clear skies
Temperature Dewpoint
-2°C / 28°F -4°C / 25°F
Humidity Altimeter Pressure
86% 30.14" Hg 1021 hPa